Richmond Dale, Ohio
Current Conditions -  °F | °C
As of 5:34 AM on Wednesday 22 Oct 2014 (Local Time) from KRZT Reporting Station
Overcast Overcast  
Wind Chill: 39°   Ceiling: 800
Heat Index: 43°   Visibility: 10mi
Dew Point: 41°   Wind: 6mph
Humidity: 93%   Direction: 360°N
Pressure: 30.19"   Gusts: NA
Location:  39.2°N, 82.81°W
Report Text: KRZT 220934Z AUTO 36005KT 10SM OVC008 06/05 A3019 RMK AO2 LTG DSNT E
Loading
Personal Weather Stations






























Interactive Weather Map
Tropical Storm Tracking
New forecast layout! Learn more

10-Day Weather Forecast

Advertisements
Track Severe Weather on mobile